This is the latest recevied weather packets stored in our database for station/object W4TJP. If no packets are shown the sender has not sent any weather packets the latest 1 day(s).
| Time | Temp. | Humidity | Pressure | Rain* | Wind** | Luminosity | Snow |
|---|---|---|---|---|---|---|---|
| 1778051300 | 19.44° C | 73% | 1008 hPa | 0 mm | 0 m/s | 0 W/m² | - |
| 1778050997 | 19.44° C | 73% | 1007.9 hPa | 0 mm | 0 m/s | 0 W/m² | - |
| 1778050694 | 20° C | 73% | 1008 hPa | 0 mm | 0.45 m/s, 124° | 0 W/m² | - |
| 1778050391 | 20° C | 72% | 1007.9 hPa | 0 mm | 0.89 m/s, 112° | 0 W/m² | - |
| 1778050088 | 20° C | 72% | 1008.2 hPa | 0 mm | 1.34 m/s, 91° | 0 W/m² | - |
| 1778049783 | 20° C | 72% | 1008.3 hPa | 0 mm | 1.34 m/s, 117° | 0 W/m² | - |
| 1778049481 | 20° C | 71% | 1008.4 hPa | 0 mm | 1.34 m/s, 125° | 0 W/m² | - |
| 1778049178 | 19.44° C | 72% | 1008.4 hPa | 0 mm | 0.45 m/s, 136° | 0 W/m² | - |
| 1778048877 | 19.44° C | 72% | 1008.6 hPa | 0 mm | 1.34 m/s, 78° | 0 W/m² | - |
| 1778048574 | 19.44° C | 72% | 1008.6 hPa | 0 mm | 0.45 m/s, 124° | 0 W/m² | - |
| 1778048270 | 19.44° C | 71% | 1008.5 hPa | 0 mm | 0.89 m/s, 111° | 0 W/m² | - |
| 1778047967 | 19.44° C | 71% | 1008.7 hPa | 0 mm | 0.45 m/s, 118° | 0 W/m² | - |
| 1778047665 | 19.44° C | 71% | 1008.7 hPa | 0 mm | 0.89 m/s, 115° | 0 W/m² | - |
| 1778047363 | 19.44° C | 71% | 1009 hPa | 0 mm | 0.45 m/s, 112° | 0 W/m² | - |
| 1778047059 | 18.89° C | 71% | 1008.7 hPa | 0 mm | 1.34 m/s, 80° | 0 W/m² | - |
| 1778046756 | 18.89° C | 72% | 1009.1 hPa | 0 mm | 0 m/s | 0 W/m² | - |
| 1778046453 | 18.89° C | 73% | 1008.8 hPa | 0 mm | 0.45 m/s, 212° | 0 W/m² | - |
| 1778046149 | 18.89° C | 72% | 1008.8 hPa | 0 mm | 0.89 m/s, 123° | 0 W/m² | - |
| 1778045847 | 18.89° C | 72% | 1009.1 hPa | 0 mm | 1.34 m/s, 147° | 0 W/m² | - |
| 1778045545 | 18.89° C | 73% | 1009.1 hPa | 0 mm | 0.89 m/s, 100° | 0 W/m² | - |
| 1778045243 | 18.33° C | 74% | 1009.1 hPa | 0 mm | 0.45 m/s, 109° | 0 W/m² | - |
| 1778044941 | 18.33° C | 76% | 1009.4 hPa | 0 mm | 0.45 m/s, 186° | 0 W/m² | - |
| 1778044638 | 18.33° C | 76% | 1009.6 hPa | 0 mm | 0 m/s | 0 W/m² | - |
| 1778044334 | 18.89° C | 74% | 1009.7 hPa | 0 mm | 1.34 m/s, 157° | 0 W/m² | - |
| 1778044033 | 18.89° C | 71% | 1009.5 hPa | 0 mm | 0.89 m/s, 230° | 0 W/m² | - |
* Rain latest hour (hover to see other rain measurements)
** Current wind speed in m/s (hover to see current wind gust speed)